KLFT METAR and TAF | Updated Today

KLFT METAR

Lafayette Regional Airport

Observation time: 60 min. ago

KLFT 301953Z 01016G25KT 10SM CLR 18/04 A3024 RMK AO2 PK WND 02027/1902 SLP238 T01780044

Need help? Read our tutorial on how to read METARs or read the parsed version below.

Lafayette Regional Airport (KLFT) METAR

  • Weather conditions on Wed, 30 Nov 2022 19:53:00 +0000 (60 min. ago):
  • Present conditions: Dry
  • Clouds: Clear skies
  • Visibility: 16093 meters
  • Wind: 10 degrees at 16 knots
  • Temperature: 18 celsius
  • Dew point: 4 celsius
  • Pressure: 30.24 inHg
  • Remarks: AO2 PK WND 02027/1902 SLP238 T01780044


Useful to know...

KLFT TAF

Lafayette Regional Airport

KLFT 302023Z 3020/0118 01016G24KT P6SM SKC FM010100 04008KT P6SM SKC FM011500 07011G19KT P6SM SKC
Observation time: 30 min. ago
Need help? Read our tutorial on how to read TAFs or read the parsed version below.

Parsed version of TAF for Lafayette Regional Airport (KLFT)

  • From 30 November at 20:00 UTC, to day 01 of the month at 18:00 UTC
  • Clouds: No significant changes expected
  • Wind: 10 degrees at 16
  • From day 1 of the month at 01:00 UTC
  • Clouds: No significant changes expected
  • Wind: 40 degrees at 8
  • From day 1 of the month at 15:00 UTC
  • Clouds: No significant changes expected
  • Wind: 70 degrees at 11